sensor_id;sensor_type;location;lat;lon;timestamp;P1;durP1;ratioP1;P2;durP2;ratioP2
16039;SDS011;8124;48.634;8.120;2023-08-07T00:04:45;39.55;;;34.70;;
16039;SDS011;8124;48.634;8.120;2023-08-07T00:15:17;38.92;;;34.63;;
16039;SDS011;8124;48.634;8.120;2023-08-07T00:20:21;40.38;;;34.90;;
16039;SDS011;8124;48.634;8.120;2023-08-07T00:25:24;40.28;;;35.00;;
16039;SDS011;8124;48.634;8.120;2023-08-07T00:30:28;39.40;;;35.10;;
16039;SDS011;8124;48.634;8.120;2023-08-07T00:35:33;39.47;;;35.05;;
16039;SDS011;8124;48.634;8.120;2023-08-07T00:40:36;39.33;;;34.72;;
16039;SDS011;8124;48.634;8.120;2023-08-07T00:45:41;39.38;;;35.08;;
16039;SDS011;8124;48.634;8.120;2023-08-07T00:50:47;43.58;;;35.08;;
16039;SDS011;8124;48.634;8.120;2023-08-07T00:55:51;41.50;;;35.25;;
16039;SDS011;8124;48.634;8.120;2023-08-07T01:00:55;39.05;;;34.70;;
16039;SDS011;8124;48.634;8.120;2023-08-07T01:06:00;42.95;;;35.03;;
16039;SDS011;8124;48.634;8.120;2023-08-07T01:11:14;40.97;;;36.15;;
16039;SDS011;8124;48.634;8.120;2023-08-07T01:16:26;41.53;;;35.03;;
16039;SDS011;8124;48.634;8.120;2023-08-07T01:21:35;40.10;;;34.97;;
16039;SDS011;8124;48.634;8.120;2023-08-07T01:26:40;39.72;;;34.83;;
16039;SDS011;8124;48.634;8.120;2023-08-07T01:31:47;39.47;;;34.92;;
16039;SDS011;8124;48.634;8.120;2023-08-07T01:36:51;39.72;;;35.38;;
16039;SDS011;8124;48.634;8.120;2023-08-07T01:41:59;39.47;;;34.67;;
16039;SDS011;8124;48.634;8.120;2023-08-07T01:47:04;39.15;;;34.75;;
16039;SDS011;8124;48.634;8.120;2023-08-07T01:52:08;40.58;;;35.40;;
16039;SDS011;8124;48.634;8.120;2023-08-07T01:57:14;39.60;;;34.95;;
16039;SDS011;8124;48.634;8.120;2023-08-07T02:02:16;39.50;;;34.80;;
16039;SDS011;8124;48.634;8.120;2023-08-07T02:07:20;39.67;;;35.25;;
16039;SDS011;8124;48.634;8.120;2023-08-07T02:12:24;39.47;;;34.80;;
16039;SDS011;8124;48.634;8.120;2023-08-07T02:17:28;39.78;;;34.60;;
16039;SDS011;8124;48.634;8.120;2023-08-07T02:22:32;40.17;;;34.97;;
16039;SDS011;8124;48.634;8.120;2023-08-07T02:27:36;39.30;;;34.90;;
16039;SDS011;8124;48.634;8.120;2023-08-07T02:32:39;39.85;;;34.85;;
16039;SDS011;8124;48.634;8.120;2023-08-07T02:37:43;39.05;;;34.75;;
16039;SDS011;8124;48.634;8.120;2023-08-07T02:42:48;39.67;;;35.25;;
16039;SDS011;8124;48.634;8.120;2023-08-07T02:47:51;39.03;;;34.72;;
16039;SDS011;8124;48.634;8.120;2023-08-07T02:52:54;39.60;;;35.25;;
16039;SDS011;8124;48.634;8.120;2023-08-07T02:57:58;42.20;;;35.33;;
16039;SDS011;8124;48.634;8.120;2023-08-07T03:03:02;41.88;;;35.28;;
16039;SDS011;8124;48.634;8.120;2023-08-07T03:08:05;41.42;;;35.42;;
16039;SDS011;8124;48.634;8.120;2023-08-07T03:13:09;41.10;;;35.22;;
16039;SDS011;8124;48.634;8.120;2023-08-07T03:18:12;40.25;;;35.42;;
16039;SDS011;8124;48.634;8.120;2023-08-07T03:23:15;43.40;;;35.05;;
16039;SDS011;8124;48.634;8.120;2023-08-07T03:28:20;38.95;;;34.55;;
16039;SDS011;8124;48.634;8.120;2023-08-07T03:33:24;39.35;;;34.72;;
16039;SDS011;8124;48.634;8.120;2023-08-07T03:38:27;41.53;;;35.05;;
16039;SDS011;8124;48.634;8.120;2023-08-07T03:43:33;41.90;;;35.53;;
16039;SDS011;8124;48.634;8.120;2023-08-07T03:48:37;39.47;;;35.05;;
16039;SDS011;8124;48.634;8.120;2023-08-07T03:53:41;39.67;;;34.78;;
16039;SDS011;8124;48.634;8.120;2023-08-07T03:58:46;40.35;;;34.72;;
16039;SDS011;8124;48.634;8.120;2023-08-07T04:03:53;40.58;;;34.88;;
16039;SDS011;8124;48.634;8.120;2023-08-07T04:08:56;40.30;;;35.00;;
16039;SDS011;8124;48.634;8.120;2023-08-07T04:14:00;41.97;;;34.80;;
16039;SDS011;8124;48.634;8.120;2023-08-07T04:19:03;39.28;;;34.97;;
16039;SDS011;8124;48.634;8.120;2023-08-07T04:24:08;41.92;;;35.15;;
16039;SDS011;8124;48.634;8.120;2023-08-07T04:29:14;40.17;;;34.90;;
16039;SDS011;8124;48.634;8.120;2023-08-07T04:34:17;40.80;;;34.83;;
16039;SDS011;8124;48.634;8.120;2023-08-07T04:39:20;40.78;;;34.85;;
16039;SDS011;8124;48.634;8.120;2023-08-07T04:44:25;40.30;;;34.70;;
16039;SDS011;8124;48.634;8.120;2023-08-07T04:49:28;40.75;;;34.97;;
16039;SDS011;8124;48.634;8.120;2023-08-07T04:54:31;39.90;;;35.40;;
16039;SDS011;8124;48.634;8.120;2023-08-07T04:59:35;39.83;;;35.45;;
16039;SDS011;8124;48.634;8.120;2023-08-07T05:04:38;41.22;;;35.80;;
16039;SDS011;8124;48.634;8.120;2023-08-07T05:09:41;40.33;;;35.42;;
16039;SDS011;8124;48.634;8.120;2023-08-07T05:14:46;41.67;;;35.38;;
16039;SDS011;8124;48.634;8.120;2023-08-07T05:19:49;40.25;;;35.25;;
16039;SDS011;8124;48.634;8.120;2023-08-07T05:24:52;41.40;;;35.08;;
16039;SDS011;8124;48.634;8.120;2023-08-07T05:29:56;39.58;;;35.25;;
16039;SDS011;8124;48.634;8.120;2023-08-07T05:34:59;40.92;;;35.38;;
16039;SDS011;8124;48.634;8.120;2023-08-07T05:40:03;40.30;;;35.30;;
16039;SDS011;8124;48.634;8.120;2023-08-07T05:45:09;42.45;;;35.60;;
16039;SDS011;8124;48.634;8.120;2023-08-07T05:50:12;40.40;;;35.92;;
16039;SDS011;8124;48.634;8.120;2023-08-07T05:55:15;41.00;;;35.95;;
16039;SDS011;8124;48.634;8.120;2023-08-07T06:00:20;41.70;;;35.83;;
16039;SDS011;8124;48.634;8.120;2023-08-07T06:05:23;41.03;;;35.25;;
16039;SDS011;8124;48.634;8.120;2023-08-07T06:10:26;40.00;;;35.30;;
16039;SDS011;8124;48.634;8.120;2023-08-07T06:15:31;40.47;;;35.50;;
16039;SDS011;8124;48.634;8.120;2023-08-07T06:20:34;40.58;;;35.97;;
16039;SDS011;8124;48.634;8.120;2023-08-07T06:25:37;40.33;;;35.38;;
16039;SDS011;8124;48.634;8.120;2023-08-07T06:30:42;40.03;;;35.47;;
16039;SDS011;8124;48.634;8.120;2023-08-07T06:35:45;41.78;;;34.88;;
16039;SDS011;8124;48.634;8.120;2023-08-07T06:40:48;39.22;;;34.92;;
16039;SDS011;8124;48.634;8.120;2023-08-07T06:45:53;39.97;;;35.28;;
16039;SDS011;8124;48.634;8.120;2023-08-07T06:50:57;39.13;;;34.83;;
16039;SDS011;8124;48.634;8.120;2023-08-07T06:56:00;39.80;;;35.13;;
16039;SDS011;8124;48.634;8.120;2023-08-07T07:01:05;39.58;;;35.25;;
16039;SDS011;8124;48.634;8.120;2023-08-07T07:06:08;42.80;;;35.10;;
16039;SDS011;8124;48.634;8.120;2023-08-07T07:11:11;42.10;;;37.50;;
16039;SDS011;8124;48.634;8.120;2023-08-07T07:16:16;39.67;;;35.38;;
16039;SDS011;8124;48.634;8.120;2023-08-07T07:21:20;41.45;;;35.50;;
16039;SDS011;8124;48.634;8.120;2023-08-07T07:26:23;40.30;;;35.42;;
16039;SDS011;8124;48.634;8.120;2023-08-07T07:31:28;40.40;;;35.33;;
16039;SDS011;8124;48.634;8.120;2023-08-07T07:36:31;40.92;;;35.25;;
16039;SDS011;8124;48.634;8.120;2023-08-07T07:41:35;41.47;;;35.55;;
16039;SDS011;8124;48.634;8.120;2023-08-07T07:46:39;40.60;;;36.10;;
16039;SDS011;8124;48.634;8.120;2023-08-07T07:51:43;41.13;;;36.13;;
16039;SDS011;8124;48.634;8.120;2023-08-07T07:56:57;42.83;;;35.30;;
16039;SDS011;8124;48.634;8.120;2023-08-07T08:02:02;40.40;;;35.83;;
16039;SDS011;8124;48.634;8.120;2023-08-07T08:07:05;40.38;;;35.97;;
16039;SDS011;8124;48.634;8.120;2023-08-07T08:12:09;41.80;;;35.80;;
16039;SDS011;8124;48.634;8.120;2023-08-07T08:17:14;41.72;;;36.10;;
16039;SDS011;8124;48.634;8.120;2023-08-07T08:22:18;41.25;;;35.88;;
16039;SDS011;8124;48.634;8.120;2023-08-07T08:27:21;40.70;;;36.05;;
16039;SDS011;8124;48.634;8.120;2023-08-07T08:32:28;40.17;;;35.78;;
16039;SDS011;8124;48.634;8.120;2023-08-07T08:37:31;40.50;;;35.85;;
16039;SDS011;8124;48.634;8.120;2023-08-07T08:42:34;40.33;;;35.50;;
16039;SDS011;8124;48.634;8.120;2023-08-07T08:47:40;39.63;;;35.30;;
16039;SDS011;8124;48.634;8.120;2023-08-07T08:52:46;41.70;;;35.88;;
16039;SDS011;8124;48.634;8.120;2023-08-07T08:57:50;41.13;;;35.90;;
16039;SDS011;8124;48.634;8.120;2023-08-07T09:02:56;40.00;;;35.53;;
16039;SDS011;8124;48.634;8.120;2023-08-07T09:08:00;40.33;;;35.92;;
16039;SDS011;8124;48.634;8.120;2023-08-07T09:13:04;40.92;;;36.30;;
16039;SDS011;8124;48.634;8.120;2023-08-07T09:18:13;40.55;;;36.05;;
16039;SDS011;8124;48.634;8.120;2023-08-07T09:23:16;40.00;;;35.63;;
16039;SDS011;8124;48.634;8.120;2023-08-07T09:28:19;41.42;;;36.35;;
16039;SDS011;8124;48.634;8.120;2023-08-07T09:33:27;40.40;;;35.95;;
16039;SDS011;8124;48.634;8.120;2023-08-07T09:38:32;40.95;;;36.45;;
16039;SDS011;8124;48.634;8.120;2023-08-07T09:43:35;41.35;;;36.10;;
16039;SDS011;8124;48.634;8.120;2023-08-07T09:48:42;40.97;;;36.20;;
16039;SDS011;8124;48.634;8.120;2023-08-07T09:53:46;41.15;;;35.95;;
16039;SDS011;8124;48.634;8.120;2023-08-07T09:58:51;42.10;;;36.40;;
16039;SDS011;8124;48.634;8.120;2023-08-07T10:03:58;41.15;;;36.65;;
16039;SDS011;8124;48.634;8.120;2023-08-07T10:09:02;41.80;;;36.60;;
16039;SDS011;8124;48.634;8.120;2023-08-07T10:14:06;44.10;;;36.33;;
16039;SDS011;8124;48.634;8.120;2023-08-07T10:19:12;40.85;;;36.35;;
16039;SDS011;8124;48.634;8.120;2023-08-07T10:24:15;42.95;;;36.75;;
16039;SDS011;8124;48.634;8.120;2023-08-07T10:29:19;41.22;;;36.72;;
16039;SDS011;8124;48.634;8.120;2023-08-07T10:34:27;42.03;;;36.75;;
16039;SDS011;8124;48.634;8.120;2023-08-07T10:39:31;41.53;;;36.78;;
16039;SDS011;8124;48.634;8.120;2023-08-07T10:44:39;41.45;;;36.65;;
16039;SDS011;8124;48.634;8.120;2023-08-07T10:49:52;41.05;;;36.35;;
16039;SDS011;8124;48.634;8.120;2023-08-07T10:54:55;41.58;;;37.00;;
16039;SDS011;8124;48.634;8.120;2023-08-07T11:00:01;41.28;;;36.72;;
16039;SDS011;8124;48.634;8.120;2023-08-07T11:05:08;41.83;;;36.90;;
16039;SDS011;8124;48.634;8.120;2023-08-07T11:10:12;41.78;;;36.47;;
16039;SDS011;8124;48.634;8.120;2023-08-07T11:15:17;41.67;;;36.92;;
16039;SDS011;8124;48.634;8.120;2023-08-07T11:20:21;41.17;;;36.67;;
16039;SDS011;8124;48.634;8.120;2023-08-07T11:25:24;41.42;;;36.92;;
16039;SDS011;8124;48.634;8.120;2023-08-07T11:30:28;41.53;;;36.92;;
16039;SDS011;8124;48.634;8.120;2023-08-07T11:35:34;41.13;;;36.63;;
16039;SDS011;8124;48.634;8.120;2023-08-07T11:40:37;41.38;;;36.78;;
16039;SDS011;8124;48.634;8.120;2023-08-07T11:45:40;42.97;;;36.75;;
16039;SDS011;8124;48.634;8.120;2023-08-07T11:50:48;41.25;;;36.75;;
16039;SDS011;8124;48.634;8.120;2023-08-07T11:55:51;41.55;;;37.03;;
16039;SDS011;8124;48.634;8.120;2023-08-07T12:00:56;41.40;;;36.90;;
16039;SDS011;8124;48.634;8.120;2023-08-07T12:06:03;42.00;;;37.40;;
16039;SDS011;8124;48.634;8.120;2023-08-07T12:11:08;41.88;;;37.13;;
16039;SDS011;8124;48.634;8.120;2023-08-07T12:16:13;42.03;;;37.20;;
16039;SDS011;8124;48.634;8.120;2023-08-07T12:21:19;41.53;;;36.95;;
16039;SDS011;8124;48.634;8.120;2023-08-07T12:26:25;42.15;;;37.55;;
16039;SDS011;8124;48.634;8.120;2023-08-07T12:31:28;44.03;;;37.35;;
16039;SDS011;8124;48.634;8.120;2023-08-07T12:36:33;41.70;;;37.17;;
16039;SDS011;8124;48.634;8.120;2023-08-07T12:41:36;41.97;;;37.38;;
16039;SDS011;8124;48.634;8.120;2023-08-07T12:46:42;44.50;;;37.30;;
16039;SDS011;8124;48.634;8.120;2023-08-07T12:51:47;44.55;;;37.95;;
16039;SDS011;8124;48.634;8.120;2023-08-07T12:56:50;42.92;;;38.25;;
16039;SDS011;8124;48.634;8.120;2023-08-07T13:01:54;43.08;;;37.33;;
16039;SDS011;8124;48.634;8.120;2023-08-07T13:06:59;43.03;;;37.45;;
16039;SDS011;8124;48.634;8.120;2023-08-07T13:12:02;42.15;;;37.55;;
16039;SDS011;8124;48.634;8.120;2023-08-07T13:17:06;42.60;;;37.47;;
16039;SDS011;8124;48.634;8.120;2023-08-07T13:22:11;42.40;;;37.40;;
16039;SDS011;8124;48.634;8.120;2023-08-07T13:27:14;42.47;;;37.58;;
16039;SDS011;8124;48.634;8.120;2023-08-07T13:32:17;41.75;;;37.15;;
16039;SDS011;8124;48.634;8.120;2023-08-07T13:37:23;41.97;;;37.40;;
16039;SDS011;8124;48.634;8.120;2023-08-07T13:42:26;42.60;;;37.50;;
16039;SDS011;8124;48.634;8.120;2023-08-07T13:47:29;41.75;;;37.17;;
16039;SDS011;8124;48.634;8.120;2023-08-07T13:52:34;42.42;;;37.45;;
16039;SDS011;8124;48.634;8.120;2023-08-07T13:57:37;41.97;;;37.38;;
16039;SDS011;8124;48.634;8.120;2023-08-07T14:02:40;43.33;;;37.58;;
16039;SDS011;8124;48.634;8.120;2023-08-07T14:07:45;41.97;;;37.38;;
16039;SDS011;8124;48.634;8.120;2023-08-07T14:12:48;43.17;;;37.78;;
16039;SDS011;8124;48.634;8.120;2023-08-07T14:17:51;41.97;;;37.33;;
16039;SDS011;8124;48.634;8.120;2023-08-07T14:22:56;42.25;;;37.65;;
16039;SDS011;8124;48.634;8.120;2023-08-07T14:28:20;43.03;;;38.30;;
16039;SDS011;8124;48.634;8.120;2023-08-07T14:33:23;42.72;;;38.05;;
16039;SDS011;8124;48.634;8.120;2023-08-07T14:38:27;42.15;;;37.55;;
16039;SDS011;8124;48.634;8.120;2023-08-07T14:43:31;43.35;;;37.85;;
16039;SDS011;8124;48.634;8.120;2023-08-07T14:48:34;42.28;;;37.67;;
16039;SDS011;8124;48.634;8.120;2023-08-07T14:53:39;44.97;;;38.00;;
16039;SDS011;8124;48.634;8.120;2023-08-07T14:58:42;42.55;;;37.88;;
16039;SDS011;8124;48.634;8.120;2023-08-07T15:03:45;42.75;;;38.05;;
16039;SDS011;8124;48.634;8.120;2023-08-07T15:08:50;42.28;;;37.45;;
16039;SDS011;8124;48.634;8.120;2023-08-07T15:13:53;45.45;;;37.70;;
16039;SDS011;8124;48.634;8.120;2023-08-07T15:18:56;42.90;;;38.20;;
16039;SDS011;8124;48.634;8.120;2023-08-07T15:24:00;42.45;;;37.80;;
16039;SDS011;8124;48.634;8.120;2023-08-07T15:29:03;43.42;;;37.85;;
16039;SDS011;8124;48.634;8.120;2023-08-07T15:34:07;44.25;;;38.15;;
16039;SDS011;8124;48.634;8.120;2023-08-07T15:39:11;43.15;;;37.97;;
16039;SDS011;8124;48.634;8.120;2023-08-07T15:44:14;42.50;;;37.83;;
16039;SDS011;8124;48.634;8.120;2023-08-07T15:49:17;42.40;;;37.80;;
16039;SDS011;8124;48.634;8.120;2023-08-07T15:54:22;44.28;;;38.13;;
16039;SDS011;8124;48.634;8.120;2023-08-07T15:59:25;42.95;;;38.30;;
16039;SDS011;8124;48.634;8.120;2023-08-07T16:04:29;42.97;;;38.30;;
16039;SDS011;8124;48.634;8.120;2023-08-07T16:09:34;42.53;;;37.92;;
16039;SDS011;8124;48.634;8.120;2023-08-07T16:14:37;42.88;;;38.00;;
16039;SDS011;8124;48.634;8.120;2023-08-07T16:19:40;42.78;;;38.08;;
16039;SDS011;8124;48.634;8.120;2023-08-07T16:24:52;43.13;;;38.17;;
16039;SDS011;8124;48.634;8.120;2023-08-07T16:30:20;42.88;;;38.17;;
16039;SDS011;8124;48.634;8.120;2023-08-07T16:41:35;43.70;;;38.92;;
16039;SDS011;8124;48.634;8.120;2023-08-07T16:52:55;42.85;;;38.15;;
16039;SDS011;8124;48.634;8.120;2023-08-07T17:05:36;44.33;;;38.75;;
16039;SDS011;8124;48.634;8.120;2023-08-07T17:11:03;42.70;;;38.10;;
16039;SDS011;8124;48.634;8.120;2023-08-07T17:42:22;44.38;;;38.17;;
16039;SDS011;8124;48.634;8.120;2023-08-07T17:47:36;42.72;;;38.08;;
16039;SDS011;8124;48.634;8.120;2023-08-07T17:53:09;42.72;;;38.03;;
16039;SDS011;8124;48.634;8.120;2023-08-07T17:58:16;43.70;;;38.70;;
16039;SDS011;8124;48.634;8.120;2023-08-07T18:03:21;43.72;;;38.35;;
16039;SDS011;8124;48.634;8.120;2023-08-07T18:08:27;43.05;;;38.35;;
16039;SDS011;8124;48.634;8.120;2023-08-07T18:13:31;42.75;;;38.08;;
16039;SDS011;8124;48.634;8.120;2023-08-07T18:18:35;43.28;;;38.60;;
16039;SDS011;8124;48.634;8.120;2023-08-07T18:23:40;43.38;;;38.55;;
16039;SDS011;8124;48.634;8.120;2023-08-07T18:28:43;42.90;;;38.28;;
16039;SDS011;8124;48.634;8.120;2023-08-07T18:33:47;42.83;;;38.20;;
16039;SDS011;8124;48.634;8.120;2023-08-07T18:38:52;42.75;;;38.15;;
16039;SDS011;8124;48.634;8.120;2023-08-07T18:43:55;42.83;;;38.15;;
16039;SDS011;8124;48.634;8.120;2023-08-07T18:48:59;42.72;;;38.05;;
16039;SDS011;8124;48.634;8.120;2023-08-07T18:54:04;42.75;;;38.15;;
16039;SDS011;8124;48.634;8.120;2023-08-07T18:59:08;43.13;;;38.42;;
16039;SDS011;8124;48.634;8.120;2023-08-07T19:04:11;42.53;;;37.88;;
16039;SDS011;8124;48.634;8.120;2023-08-07T19:09:16;45.63;;;40.85;;
16039;SDS011;8124;48.634;8.120;2023-08-07T19:14:21;43.22;;;38.40;;
16039;SDS011;8124;48.634;8.120;2023-08-07T19:19:29;42.83;;;38.20;;
16039;SDS011;8124;48.634;8.120;2023-08-07T19:24:34;42.53;;;37.92;;
16039;SDS011;8124;48.634;8.120;2023-08-07T19:29:41;42.45;;;37.85;;
16039;SDS011;8124;48.634;8.120;2023-08-07T19:34:45;42.65;;;37.95;;
16039;SDS011;8124;48.634;8.120;2023-08-07T19:39:51;42.58;;;37.95;;
16039;SDS011;8124;48.634;8.120;2023-08-07T19:44:54;44.20;;;37.97;;
16039;SDS011;8124;48.634;8.120;2023-08-07T19:49:58;43.17;;;37.97;;
16039;SDS011;8124;48.634;8.120;2023-08-07T19:55:03;44.60;;;38.15;;
16039;SDS011;8124;48.634;8.120;2023-08-07T20:00:08;42.25;;;37.65;;
16039;SDS011;8124;48.634;8.120;2023-08-07T20:05:13;42.08;;;37.53;;
16039;SDS011;8124;48.634;8.120;2023-08-07T20:10:23;41.78;;;37.17;;
16039;SDS011;8124;48.634;8.120;2023-08-07T20:15:28;44.83;;;38.50;;
16039;SDS011;8124;48.634;8.120;2023-08-07T20:20:34;42.60;;;37.70;;
16039;SDS011;8124;48.634;8.120;2023-08-07T20:25:40;42.75;;;37.60;;
16039;SDS011;8124;48.634;8.120;2023-08-07T20:30:44;42.28;;;37.67;;
16039;SDS011;8124;48.634;8.120;2023-08-07T20:35:49;42.25;;;37.65;;
16039;SDS011;8124;48.634;8.120;2023-08-07T20:40:54;42.38;;;37.38;;
16039;SDS011;8124;48.634;8.120;2023-08-07T20:45:58;41.97;;;36.95;;
16039;SDS011;8124;48.634;8.120;2023-08-07T20:51:07;42.17;;;37.58;;
16039;SDS011;8124;48.634;8.120;2023-08-07T20:56:12;42.40;;;37.80;;
16039;SDS011;8124;48.634;8.120;2023-08-07T21:01:15;42.20;;;37.60;;
16039;SDS011;8124;48.634;8.120;2023-08-07T21:06:18;42.88;;;38.28;;
16039;SDS011;8124;48.634;8.120;2023-08-07T21:11:22;42.35;;;37.75;;
16039;SDS011;8124;48.634;8.120;2023-08-07T21:16:29;42.55;;;37.92;;
16039;SDS011;8124;48.634;8.120;2023-08-07T21:21:32;43.65;;;38.85;;
16039;SDS011;8124;48.634;8.120;2023-08-07T21:26:36;41.63;;;37.13;;
16039;SDS011;8124;48.634;8.120;2023-08-07T21:31:39;41.67;;;37.13;;
16039;SDS011;8124;48.634;8.120;2023-08-07T21:36:42;42.10;;;37.50;;
16039;SDS011;8124;48.634;8.120;2023-08-07T21:41:47;42.45;;;37.55;;
16039;SDS011;8124;48.634;8.120;2023-08-07T21:46:50;41.22;;;36.72;;
16039;SDS011;8124;48.634;8.120;2023-08-07T21:51:54;41.78;;;37.22;;
16039;SDS011;8124;48.634;8.120;2023-08-07T21:56:59;41.40;;;36.90;;
16039;SDS011;8124;48.634;8.120;2023-08-07T22:02:02;41.53;;;36.92;;
16039;SDS011;8124;48.634;8.120;2023-08-07T22:07:05;42.30;;;36.92;;
16039;SDS011;8124;48.634;8.120;2023-08-07T22:12:10;41.80;;;37.15;;
16039;SDS011;8124;48.634;8.120;2023-08-07T22:17:13;41.60;;;37.05;;
16039;SDS011;8124;48.634;8.120;2023-08-07T22:22:16;41.53;;;37.00;;
16039;SDS011;8124;48.634;8.120;2023-08-07T22:27:20;41.45;;;36.95;;
16039;SDS011;8124;48.634;8.120;2023-08-07T22:32:23;41.70;;;37.15;;
16039;SDS011;8124;48.634;8.120;2023-08-07T22:37:26;41.65;;;37.05;;
16039;SDS011;8124;48.634;8.120;2023-08-07T22:42:31;42.65;;;37.05;;
16039;SDS011;8124;48.634;8.120;2023-08-07T22:47:34;41.83;;;37.28;;
16039;SDS011;8124;48.634;8.120;2023-08-07T22:52:37;41.70;;;37.15;;
16039;SDS011;8124;48.634;8.120;2023-08-07T22:57:41;41.30;;;36.80;;
16039;SDS011;8124;48.634;8.120;2023-08-07T23:02:44;41.85;;;36.72;;
16039;SDS011;8124;48.634;8.120;2023-08-07T23:07:48;41.53;;;37.03;;
16039;SDS011;8124;48.634;8.120;2023-08-07T23:12:52;42.33;;;37.35;;
16039;SDS011;8124;48.634;8.120;2023-08-07T23:17:55;41.15;;;36.65;;
16039;SDS011;8124;48.634;8.120;2023-08-07T23:22:59;41.67;;;37.08;;
16039;SDS011;8124;48.634;8.120;2023-08-07T23:28:05;42.05;;;37.47;;
16039;SDS011;8124;48.634;8.120;2023-08-07T23:33:08;42.22;;;37.63;;
16039;SDS011;8124;48.634;8.120;2023-08-07T23:38:12;42.53;;;37.50;;
16039;SDS011;8124;48.634;8.120;2023-08-07T23:43:17;41.92;;;37.33;;
16039;SDS011;8124;48.634;8.120;2023-08-07T23:48:22;44.72;;;37.35;;
16039;SDS011;8124;48.634;8.120;2023-08-07T23:53:25;42.15;;;37.42;;
16039;SDS011;8124;48.634;8.120;2023-08-07T23:58:31;41.67;;;37.08;;
